Time;durP1;ratioP1;P1;durP2;ratioP2;P2;SDS_P1;SDS_P2;PMS_P1;PMS_P2;Temp;Humidity;BMP_temperature;BMP_pressure;BME280_temperature;BME280_humidity;BME280_pressure;Samples;Min_cycle;Max_cycle;Signal;HPM_P1;HPM_P2
2023/03/06 00:01:18;;;;;;;0.40;0.40;;;;;;;2.92;66.56;98904.25;5117937;28;20454;-65
2023/03/06 00:03:47;;;;;;;1.38;1.02;;;;;;;2.99;66.90;98917.81;5117961;27;20039;-65
2023/03/06 00:06:16;;;;;;;0.85;0.85;;;;;;;2.97;67.22;98911.88;5117560;28;20051;-65
2023/03/06 00:08:45;;;;;;;1.10;1.02;;;;;;;3.02;67.28;98910.28;5117527;28;20050;-65
2023/03/06 00:11:14;;;;;;;0.40;0.40;;;;;;;2.99;66.23;98920.31;5117523;28;20112;-65
2023/03/06 00:13:43;;;;;;;0.45;0.45;;;;;;;2.94;66.36;98917.72;5117552;28;20047;-65
2023/03/06 00:16:13;;;;;;;0.70;0.70;;;;;;;2.91;66.85;98911.78;5117427;28;20093;-65
2023/03/06 00:18:43;;;;;;;0.32;0.32;;;;;;;2.89;67.08;98920.97;5117631;28;20062;-66
2023/03/06 00:21:11;;;;;;;0.28;0.28;;;;;;;2.87;66.84;98910.03;5117648;27;20039;-65
2023/03/06 00:23:40;;;;;;;0.20;0.20;;;;;;;2.86;67.38;98909.19;5117347;28;20036;-65
2023/03/06 00:26:10;;;;;;;0.63;0.40;;;;;;;2.80;67.74;98904.03;5117238;27;20085;-65
2023/03/06 00:28:42;;;;;;;1.08;1.02;;;;;;;2.85;68.52;98904.13;5117049;28;20104;-65
2023/03/06 00:31:10;;;;;;;0.53;0.53;;;;;;;2.86;68.59;98898.25;5117162;28;20073;-65
2023/03/06 00:33:42;;;;;;;0.40;0.40;;;;;;;2.89;67.82;98898.31;5117097;28;20279;-65
2023/03/06 00:36:11;;;;;;;0.40;0.40;;;;;;;2.78;68.63;98900.66;5117057;28;20044;-65
2023/03/06 00:38:41;;;;;;;0.43;0.43;;;;;;;2.80;68.01;98900.66;5116928;28;20048;-66
2023/03/06 00:41:12;;;;;;;0.30;0.30;;;;;;;2.75;68.47;98902.25;5117285;28;20040;-66
2023/03/06 00:43:40;;;;;;;0.65;0.65;;;;;;;2.67;69.00;98887.00;5117228;28;20036;-66
2023/03/06 00:46:09;;;;;;;0.50;0.50;;;;;;;2.64;69.00;98892.84;5115933;28;20432;-65
2023/03/06 00:48:41;;;;;;;1.20;1.17;;;;;;;2.64;68.60;98887.81;5116747;28;20047;-65
2023/03/06 00:51:10;;;;;;;0.30;0.30;;;;;;;2.66;68.89;98886.16;5115904;28;20044;-65
2023/03/06 00:53:41;;;;;;;0.55;0.55;;;;;;;2.62;68.92;98889.44;5116751;28;20126;-65
2023/03/06 00:56:10;;;;;;;0.43;0.43;;;;;;;2.59;69.97;98879.31;5114875;28;20410;-65
2023/03/06 00:58:39;;;;;;;0.40;0.40;;;;;;;2.58;70.00;98876.78;5116587;28;20047;-65
2023/03/06 01:01:08;;;;;;;0.20;0.20;;;;;;;2.60;70.11;98877.66;5116592;28;20067;-65
2023/03/06 01:03:37;;;;;;;0.30;0.30;;;;;;;2.60;69.91;98880.16;5116726;27;20397;-65
2023/03/06 01:06:07;;;;;;;4.18;1.55;;;;;;;2.59;70.18;98879.31;5115649;28;20047;-65
2023/03/06 01:08:36;;;;;;;0.60;0.60;;;;;;;2.55;70.52;98872.53;5115514;28;20067;-65
2023/03/06 01:11:05;;;;;;;0.57;0.57;;;;;;;2.54;69.98;98873.34;5116082;28;20219;-66
2023/03/06 01:13:34;;;;;;;0.32;0.32;;;;;;;2.53;69.79;98869.16;5116705;28;20071;-65
2023/03/06 01:16:07;;;;;;;0.40;0.40;;;;;;;2.50;70.48;98873.25;5115087;28;20074;-65
2023/03/06 01:18:36;;;;;;;0.28;0.28;;;;;;;2.45;70.52;98872.34;5116273;28;20043;-65
2023/03/06 01:21:07;;;;;;;0.50;0.50;;;;;;;2.45;69.65;98868.16;5116476;28;20104;-65
2023/03/06 01:23:36;;;;;;;0.93;0.85;;;;;;;2.46;70.07;98867.34;5115217;28;20096;-65
2023/03/06 01:26:06;;;;;;;0.38;0.38;;;;;;;2.40;69.61;98862.19;5116081;28;20071;-65
2023/03/06 01:28:36;;;;;;;;;;;;;;;2.43;70.27;98852.16;5116734;28;20039;-65
2023/03/06 01:31:05;;;;;;;0.40;0.40;;;;;;;2.47;70.72;98851.41;5114931;28;20077;-65
2023/03/06 01:33:34;;;;;;;0.85;0.75;;;;;;;2.42;70.87;98853.00;5115065;28;20074;-66
2023/03/06 01:36:04;;;;;;;0.30;0.30;;;;;;;2.40;70.75;98862.19;5116203;28;20426;-65
2023/03/06 01:38:35;;;;;;;0.20;0.20;;;;;;;2.39;71.14;98855.47;5115882;28;20043;-65
2023/03/06 01:41:05;;;;;;;0.40;0.40;;;;;;;2.41;70.79;98848.78;5114577;28;20048;-65
2023/03/06 01:43:36;;;;;;;0.40;0.40;;;;;;;2.44;70.84;98848.00;5115690;28;20071;-65
2023/03/06 01:46:27;;;;;;;0.50;0.50;;;;;;;2.51;70.65;98854.84;5115745;28;20071;-65
2023/03/06 01:48:59;;;;;;;2.60;1.75;;;;;;;2.44;70.42;98848.00;5115694;27;20486;-65
2023/03/06 01:51:32;;;;;;;0.50;0.50;;;;;;;2.44;69.66;98848.84;5115494;28;20050;-65
2023/03/06 01:54:11;;;;;;;1.27;1.15;;;;;;;2.46;69.86;98847.19;5115862;28;20417;-65
2023/03/06 01:56:45;;;;;;;0.60;0.60;;;;;;;2.39;69.61;98844.53;5115524;28;20097;-65
2023/03/06 01:59:15;;;;;;;1.48;1.38;;;;;;;2.40;70.29;98841.22;5115453;28;20044;-65
2023/03/06 02:01:44;;;;;;;0.40;0.40;;;;;;;2.41;70.21;98833.69;5114435;28;20055;-65
2023/03/06 02:04:16;;;;;;;0.30;0.30;;;;;;;2.52;70.22;98836.41;5115618;28;20055;-65
2023/03/06 02:06:45;;;;;;;0.98;0.98;;;;;;;2.50;70.33;98833.84;5114132;28;20067;-65
2023/03/06 02:09:16;;;;;;;0.68;0.68;;;;;;;2.43;70.64;98824.47;5115213;28;20040;-65
2023/03/06 02:11:45;;;;;;;0.50;0.50;;;;;;;2.41;71.27;98826.13;5115191;28;20052;-66
2023/03/06 02:14:17;;;;;;;1.60;1.38;;;;;;;2.41;71.03;98828.66;5113951;28;20056;-66
2023/03/06 02:16:46;;;;;;;0.50;0.50;;;;;;;2.38;71.12;98826.06;5115110;28;20048;-66
2023/03/06 02:19:33;;;;;;;0.63;0.63;;;;;;;2.38;71.06;98826.06;5115563;28;20453;-65
2023/03/06 02:22:03;;;;;;;0.55;0.55;;;;;;;2.44;71.06;98822.81;5114935;28;20044;-65
2023/03/06 02:24:45;;;;;;;0.73;0.73;;;;;;;2.39;70.95;98825.25;5114892;28;20047;-65
2023/03/06 02:27:17;;;;;;;0.70;0.70;;;;;;;2.37;71.80;98826.91;5114032;28;20075;-65
2023/03/06 02:29:46;;;;;;;0.35;0.35;;;;;;;2.33;71.97;98829.31;5114023;28;20077;-65
2023/03/06 02:32:15;;;;;;;3.97;2.17;;;;;;;2.36;71.45;98830.22;5114699;28;20063;-65
2023/03/06 02:34:54;;;;;;;0.30;0.30;;;;;;;2.43;71.21;98824.47;5113563;28;20044;-66
2023/03/06 02:37:26;;;;;;;0.30;0.30;;;;;;;2.44;72.06;98828.72;5115023;28;20078;-66
2023/03/06 02:40:03;;;;;;;0.50;0.50;;;;;;;2.43;71.56;98832.03;5113539;28;20055;-65
2023/03/06 02:42:33;;;;;;;0.40;0.40;;;;;;;2.33;71.74;98834.34;5114811;28;20043;-65
2023/03/06 02:45:06;;;;;;;0.28;0.28;;;;;;;2.24;71.93;98835.03;5113462;28;20048;-65
2023/03/06 02:47:35;;;;;;;0.68;0.68;;;;;;;2.22;71.95;98831.66;5114600;28;20059;-65
2023/03/06 02:50:04;;;;;;;1.27;1.17;;;;;;;2.18;71.81;98829.06;5114497;28;20085;-65
2023/03/06 02:52:33;;;;;;;0.63;0.63;;;;;;;2.14;71.49;98820.59;5114353;28;20557;-65
2023/03/06 02:55:03;;;;;;;;;;;;;;;2.18;71.70;98824.88;5114843;28;20135;-65
2023/03/06 02:57:33;;;;;;;1.52;0.82;;;;;;;2.18;71.44;98824.03;5114402;28;20018;-65
2023/03/06 03:00:02;;;;;;;1.08;1.05;;;;;;;2.11;71.56;98814.66;5113166;28;20044;-65
2023/03/06 03:02:31;;;;;;;0.20;0.20;;;;;;;2.21;71.14;98824.91;5114645;28;20405;-65
2023/03/06 03:05:00;;;;;;;0.40;0.40;;;;;;;2.21;70.87;98824.91;5113119;28;20063;-66
2023/03/06 03:07:30;;;;;;;0.65;0.65;;;;;;;2.19;70.98;98825.69;5114345;28;20052;-66
2023/03/06 03:09:59;;;;;;;0.40;0.40;;;;;;;2.16;70.98;98823.16;5113340;28;20039;-66
2023/03/06 03:12:28;;;;;;;0.45;0.45;;;;;;;2.17;71.20;98820.66;5112835;28;20040;-66
2023/03/06 03:14:58;;;;;;;0.50;0.50;;;;;;;2.14;71.13;98827.28;5112908;28;20046;-66
2023/03/06 03:17:29;;;;;;;0.38;0.38;;;;;;;2.11;71.53;98823.06;5114481;28;20051;-66
2023/03/06 03:19:58;;;;;;;0.40;0.40;;;;;;;2.16;70.90;98826.50;5112744;28;20039;-66
2023/03/06 03:22:27;;;;;;;0.40;0.40;;;;;;;2.12;71.30;98822.22;5113157;28;20071;-65
2023/03/06 03:24:56;;;;;;;0.47;0.47;;;;;;;2.11;71.64;98823.06;5112731;28;20773;-65
2023/03/06 03:27:25;;;;;;;0.30;0.30;;;;;;;2.16;72.02;98811.41;5113018;28;20044;-65
2023/03/06 03:29:59;;;;;;;0.20;0.20;;;;;;;2.23;71.94;98807.34;5112768;28;20043;-65
2023/03/06 03:32:29;;;;;;;0.52;0.52;;;;;;;2.31;72.05;98801.59;5114271;28;20058;-65
2023/03/06 03:34:59;;;;;;;3.42;1.63;;;;;;;2.35;71.52;98798.31;5112689;28;20075;-65
2023/03/06 03:37:28;;;;;;;;;;;;;;;2.33;71.82;98797.44;5114650;28;20069;-65
2023/03/06 03:39:57;;;;;;;1.10;1.05;;;;;;;2.35;72.17;98798.31;5112660;28;20002;-65
2023/03/06 03:42:26;;;;;;;0.67;0.67;;;;;;;2.31;71.96;98794.06;5114187;28;20047;-65
2023/03/06 03:44:55;;;;;;;0.43;0.43;;;;;;;2.33;72.09;98805.00;5112506;28;20558;-65
2023/03/06 03:47:26;;;;;;;0.22;0.22;;;;;;;2.31;72.98;98806.63;5114114;28;20058;-65
2023/03/06 03:49:55;;;;;;;0.77;0.77;;;;;;;2.22;72.16;98805.63;5112942;28;20047;-65
2023/03/06 03:52:25;;;;;;;0.52;0.52;;;;;;;2.04;72.59;98807.00;5114078;28;20048;-66
2023/03/06 03:54:54;;;;;;;0.30;0.30;;;;;;;1.99;71.98;98807.75;5113606;28;20489;-65
2023/03/06 03:57:23;;;;;;;0.77;0.65;;;;;;;1.97;72.00;98810.22;5112491;28;20541;-65
2023/03/06 03:59:54;;;;;;;0.73;0.73;;;;;;;1.99;72.09;98812.78;5113998;28;20063;-65
2023/03/06 04:02:29;;;;;;;0.50;0.50;;;;;;;1.96;71.99;98805.16;5113642;28;20044;-66
2023/03/06 04:05:06;;;;;;;0.57;0.57;;;;;;;2.02;72.52;98810.28;5113518;28;20047;-66
2023/03/06 04:07:35;;;;;;;0.40;0.40;;;;;;;2.07;71.67;98808.72;5112375;28;20051;-65
2023/03/06 04:10:04;;;;;;;0.77;0.77;;;;;;;2.10;72.16;98795.34;5113642;28;20465;-66
2023/03/06 04:12:33;;;;;;;0.20;0.20;;;;;;;2.17;71.22;98787.94;5113436;28;20471;-65
2023/03/06 04:15:02;;;;;;;0.25;0.25;;;;;;;2.18;71.45;98779.59;5113775;28;20134;-65
2023/03/06 04:17:33;;;;;;;0.35;0.35;;;;;;;2.24;71.10;98779.66;5112607;28;20131;-65
2023/03/06 04:20:06;;;;;;;0.45;0.45;;;;;;;2.22;71.17;98776.28;5112649;28;20512;-65
2023/03/06 04:22:36;;;;;;;0.40;0.40;;;;;;;2.06;70.44;98779.34;5113818;28;20494;-65
2023/03/06 04:25:06;;;;;;;0.40;0.40;;;;;;;2.00;70.60;98789.28;5112182;28;20489;-65
2023/03/06 04:27:36;;;;;;;0.28;0.28;;;;;;;2.01;70.73;98788.50;5113705;28;20073;-66
2023/03/06 04:30:06;;;;;;;1.00;1.00;;;;;;;2.03;70.78;98799.44;5112183;28;20044;-66
2023/03/06 04:32:38;;;;;;;0.30;0.30;;;;;;;2.07;70.79;98796.13;5117397;28;20516;-65
2023/03/06 04:35:07;;;;;;;0.80;0.80;;;;;;;2.15;71.47;98794.63;5116214;28;20471;-65
2023/03/06 04:37:44;;;;;;;1.13;0.95;;;;;;;2.23;71.35;98795.56;5115805;28;20129;-65
2023/03/06 04:40:18;;;;;;;0.80;0.80;;;;;;;2.17;71.16;98787.94;5115782;28;20127;-66
2023/03/06 04:42:47;;;;;;;0.57;0.57;;;;;;;2.10;71.55;98786.13;5117611;28;20275;-65
2023/03/06 04:45:16;;;;;;;0.30;0.30;;;;;;;2.02;71.37;98782.63;5117101;28;20473;-65
2023/03/06 04:47:47;;;;;;;0.50;0.50;;;;;;;1.99;71.02;98782.59;5116781;28;20050;-65
2023/03/06 04:50:17;;;;;;;0.30;0.30;;;;;;;1.97;71.48;98780.03;5117133;28;20397;-65
2023/03/06 04:52:45;;;;;;;0.40;0.40;;;;;;;1.96;71.24;98782.53;5116752;28;20126;-65
2023/03/06 04:55:17;;;;;;;1.02;1.02;;;;;;;1.90;72.11;98782.38;5116673;28;20040;-65
2023/03/06 04:57:47;;;;;;;1.35;1.25;;;;;;;1.86;71.88;98783.16;5116678;28;20050;-66
2023/03/06 05:00:18;;;;;;;1.45;1.35;;;;;;;1.82;71.24;98791.47;5116897;28;20075;-65
2023/03/06 05:02:50;;;;;;;0.50;0.50;;;;;;;1.75;71.82;98787.16;5116593;28;20059;-65
2023/03/06 05:05:19;;;;;;;0.68;0.68;;;;;;;1.77;71.39;98785.50;5116428;28;20039;-65
2023/03/06 05:07:48;;;;;;;0.30;0.30;;;;;;;1.81;72.00;98783.06;5116419;28;20039;-65
2023/03/06 05:10:18;;;;;;;0.40;0.40;;;;;;;1.86;70.85;98785.69;5116678;28;20043;-65
2023/03/06 05:12:47;;;;;;;0.20;0.20;;;;;;;1.89;71.05;98786.59;5116204;28;20100;-65
2023/03/06 05:15:16;;;;;;;0.50;0.50;;;;;;;1.90;70.49;98782.38;5116292;28;20062;-65
2023/03/06 05:17:45;;;;;;;0.20;0.20;;;;;;;1.90;70.48;98792.44;5116422;28;20046;-65
2023/03/06 05:20:16;;;;;;;0.30;0.30;;;;;;;1.86;70.96;98790.72;5116031;28;20404;-65
2023/03/06 05:22:45;;;;;;;0.57;0.50;;;;;;;1.84;70.39;98792.34;5116427;28;20036;-65
2023/03/06 05:25:14;;;;;;;0.55;0.55;;;;;;;1.77;70.62;98791.41;5115972;28;20512;-65
2023/03/06 05:27:43;;;;;;;1.30;1.20;;;;;;;1.75;71.36;98787.16;5115950;28;20046;-65
2023/03/06 05:30:14;;;;;;;0.40;0.40;;;;;;;1.78;71.17;98792.22;5116136;28;20288;-65
2023/03/06 05:32:44;;;;;;;0.35;0.35;;;;;;;1.76;71.24;98793.84;5116280;28;20077;-65
2023/03/06 05:35:20;;;;;;;0.95;0.95;;;;;;;1.78;71.82;98792.22;5116113;28;20054;-65
2023/03/06 05:37:49;;;;;;;0.95;0.95;;;;;;;1.82;71.74;98786.44;5116122;28;20052;-66
2023/03/06 05:40:18;;;;;;;0.55;0.55;;;;;;;1.76;71.86;98794.72;5116049;28;20512;-65
2023/03/06 05:42:47;;;;;;;2.28;1.75;;;;;;;1.75;71.51;98799.72;5116048;28;20123;-65
2023/03/06 05:45:16;;;;;;;0.30;0.30;;;;;;;1.75;71.90;98787.97;5115654;28;20035;-65
2023/03/06 05:47:45;;;;;;;1.80;1.70;;;;;;;1.78;71.85;98792.22;5115669;28;20040;-65
2023/03/06 05:50:14;;;;;;;0.45;0.45;;;;;;;1.79;72.27;98799.81;5115411;28;20046;-65
2023/03/06 05:52:44;;;;;;;0.30;0.30;;;;;;;1.90;71.58;98795.81;5115462;28;20038;-65
2023/03/06 05:55:14;;;;;;;0.50;0.50;;;;;;;1.95;71.56;98785.84;5115782;28;20063;-66
2023/03/06 05:57:43;;;;;;;0.57;0.57;;;;;;;1.96;72.30;98797.63;5114013;28;20043;-65
2023/03/06 06:00:13;;;;;;;1.15;0.90;;;;;;;1.98;72.40;98795.97;5115398;28;20043;-65
2023/03/06 06:02:45;;;;;;;0.47;0.47;;;;;;;2.05;72.35;98792.75;5115385;28;20074;-65
2023/03/06 06:05:14;;;;;;;0.77;0.77;;;;;;;2.01;71.94;98785.97;5115712;28;20028;-65
2023/03/06 06:07:44;;;;;;;1.27;1.17;;;;;;;1.84;72.37;98767.19;5115148;28;20039;-65
2023/03/06 06:10:13;;;;;;;0.30;0.30;;;;;;;2.02;72.81;98808.63;5115578;28;20565;-65
2023/03/06 06:12:41;;;;;;;0.65;0.65;;;;;;;2.07;72.63;98803.69;5114945;28;20090;-65
2023/03/06 06:15:10;;;;;;;4.00;1.80;;;;;;;2.12;72.60;98799.59;5115120;28;20036;-65
2023/03/06 06:17:39;;;;;;;0.35;0.35;;;;;;;2.16;73.14;98795.47;5115143;28;20046;-65
2023/03/06 06:20:09;;;;;;;0.43;0.43;;;;;;;2.20;73.41;98798.06;5114945;28;20532;-66
2023/03/06 06:22:38;;;;;;;0.50;0.50;;;;;;;2.18;73.11;98794.69;5115617;28;20134;-66
2023/03/06 06:25:09;;;;;;;0.80;0.80;;;;;;;2.24;74.08;98799.81;5114719;28;20097;-65
2023/03/06 06:27:37;;;;;;;0.30;0.30;;;;;;;2.23;74.21;98797.28;5114961;28;20143;-65
2023/03/06 06:30:08;;;;;;;0.52;0.52;;;;;;;2.27;74.23;98804.91;5114773;28;20071;-65
2023/03/06 06:32:37;;;;;;;0.52;0.52;;;;;;;2.29;73.35;98795.69;5114855;28;20040;-65
2023/03/06 06:35:07;;;;;;;0.52;0.52;;;;;;;2.32;74.23;98807.50;5114677;28;20048;-66
2023/03/06 06:37:36;;;;;;;0.77;0.77;;;;;;;2.38;74.10;98802.56;5114907;28;20090;-65
2023/03/06 06:40:06;;;;;;;3.83;1.27;;;;;;;2.40;73.28;98800.94;5114577;28;20573;-66
2023/03/06 06:42:36;;;;;;;1.15;0.98;;;;;;;2.35;73.57;98800.84;5114486;28;20052;-65
2023/03/06 06:45:09;;;;;;;0.98;0.60;;;;;;;2.33;73.85;98805.00;5114496;28;20097;-66
2023/03/06 06:47:40;;;;;;;0.65;0.65;;;;;;;2.38;72.78;98797.53;5114782;28;20067;-65
2023/03/06 06:50:12;;;;;;;0.52;0.52;;;;;;;2.46;72.65;98801.88;5114512;27;20047;-65
2023/03/06 06:52:41;;;;;;;0.73;0.73;;;;;;;2.64;73.01;98797.13;5114508;28;20386;-66
2023/03/06 06:55:11;;;;;;;0.50;0.50;;;;;;;2.79;72.04;98800.72;5113855;28;20123;-66
2023/03/06 06:57:42;;;;;;;0.50;0.50;;;;;;;2.82;71.79;98785.66;5114707;27;20044;-65
2023/03/06 07:00:14;;;;;;;0.30;0.30;;;;;;;2.89;71.91;98797.53;5114547;28;20043;-65
2023/03/06 07:02:43;;;;;;;0.40;0.40;;;;;;;2.92;71.94;98797.56;5114267;28;20043;-65
2023/03/06 07:05:12;;;;;;;0.50;0.50;;;;;;;3.05;71.31;98794.41;5114088;28;20040;-65
2023/03/06 07:07:41;;;;;;;0.30;0.30;;;;;;;3.17;71.66;98800.47;5114203;28;20528;-65
2023/03/06 07:10:14;;;;;;;0.30;0.30;;;;;;;3.25;71.47;98798.06;5114132;28;20066;-65
2023/03/06 07:12:45;;;;;;;0.20;0.20;;;;;;;3.24;70.97;98802.25;5113902;28;20132;-65
2023/03/06 07:15:16;;;;;;;0.70;0.70;;;;;;;3.33;71.05;98799.03;5114461;28;20101;-65
2023/03/06 07:17:45;;;;;;;1.70;1.13;;;;;;;3.41;70.63;98799.94;5114252;28;20134;-65
2023/03/06 07:20:18;;;;;;;1.05;0.98;;;;;;;3.47;69.99;98795.00;5114370;28;20075;-65
2023/03/06 07:22:47;;;;;;;1.60;1.50;;;;;;;3.44;70.21;98805.03;5114208;28;20108;-66
2023/03/06 07:25:20;;;;;;;1.05;1.00;;;;;;;3.50;69.86;98809.31;5114143;28;20066;-66
2023/03/06 07:27:53;;;;;;;2.97;2.75;;;;;;;3.58;69.70;98803.53;5113884;28;20046;-65
2023/03/06 07:30:23;;;;;;;1.38;1.15;;;;;;;3.61;69.03;98798.53;5114188;28;20404;-65
2023/03/06 07:32:55;;;;;;;;;;;;;;;3.56;69.42;98799.31;5114630;28;20035;-65
2023/03/06 07:35:25;;;;;;;1.30;1.25;;;;;;;3.55;69.44;98793.41;5114109;28;19982;-65
2023/03/06 07:37:54;;;;;;;1.13;1.05;;;;;;;3.66;68.74;98801.97;5113792;28;20040;-65
2023/03/06 07:40:23;;;;;;;0.33;0.33;;;;;;;3.68;68.98;98797.78;5114014;28;20463;-65
2023/03/06 07:42:55;;;;;;;1.10;1.08;;;;;;;3.66;68.27;98791.88;5113822;28;20497;-65
2023/03/06 07:45:56;;;;;;;0.57;0.57;;;;;;;3.75;68.44;98804.59;5112510;28;20123;-66
2023/03/06 07:48:25;;;;;;;0.65;0.65;;;;;;;3.80;68.40;98800.47;5113675;28;20053;-65
2023/03/06 07:50:58;;;;;;;0.23;0.23;;;;;;;3.82;67.65;98803.84;5114021;28;20126;-66
2023/03/06 07:53:27;;;;;;;2.05;1.15;;;;;;;3.78;67.75;98802.13;5113977;28;20074;-65
2023/03/06 07:55:56;;;;;;;0.47;0.47;;;;;;;3.78;68.45;98804.66;5113924;28;20075;-66
2023/03/06 07:58:27;;;;;;;0.82;0.82;;;;;;;3.83;67.86;98794.59;5113997;28;20047;-65
2023/03/06 08:00:56;;;;;;;0.30;0.30;;;;;;;3.93;67.71;98802.31;5113854;28;20374;-65
2023/03/06 08:03:25;;;;;;;0.85;0.85;;;;;;;4.04;67.98;98805.78;5113651;28;20039;-65
2023/03/06 08:05:54;;;;;;;0.57;0.57;;;;;;;4.10;68.14;98806.69;5116250;28;20035;-65
2023/03/06 08:08:23;;;;;;;5.15;2.42;;;;;;;4.10;68.35;98799.09;5117952;28;20088;-65
2023/03/06 08:10:51;;;;;;;1.77;1.67;;;;;;;4.20;68.03;98805.97;5117843;28;20031;-66
2023/03/06 08:13:20;;;;;;;0.50;0.50;;;;;;;4.26;68.63;98798.44;5117239;28;20055;-66
2023/03/06 08:15:50;;;;;;;1.00;1.00;;;;;;;4.26;67.58;98811.06;5114976;28;20043;-66
2023/03/06 08:18:20;;;;;;;1.35;1.00;;;;;;;4.26;67.81;98806.00;5117352;28;20492;-65
2023/03/06 08:20:48;;;;;;;0.98;0.88;;;;;;;4.27;66.84;98807.72;5117317;28;20093;-65
2023/03/06 08:23:17;;;;;;;0.50;0.50;;;;;;;4.28;66.48;98805.19;5117691;28;20072;-65
2023/03/06 08:25:46;;;;;;;1.02;1.02;;;;;;;4.33;66.90;98803.56;5117787;28;20454;-66
2023/03/06 08:28:14;;;;;;;0.40;0.40;;;;;;;4.34;66.53;98809.47;5117186;28;20130;-65
2023/03/06 08:30:45;;;;;;;0.80;0.80;;;;;;;4.46;66.48;98804.53;5117056;28;20051;-65
2023/03/06 08:33:15;;;;;;;3.63;1.83;;;;;;;4.56;66.07;98801.22;5117088;28;20050;-65
2023/03/06 08:35:43;;;;;;;0.65;0.65;;;;;;;4.64;65.47;98799.63;5117335;28;20048;-65
2023/03/06 08:38:12;;;;;;;2.22;2.08;;;;;;;4.66;65.66;98793.75;5117146;28;20039;-65
2023/03/06 08:40:41;;;;;;;1.17;1.13;;;;;;;4.67;65.64;98804.72;5116966;28;20089;-66
2023/03/06 08:43:10;;;;;;;0.20;0.20;;;;;;;4.72;65.67;98798.88;5116984;28;20485;-65
2023/03/06 08:45:41;;;;;;;0.30;0.30;;;;;;;4.75;64.86;98793.00;5117292;28;20051;-66
2023/03/06 08:48:10;;;;;;;1.50;1.40;;;;;;;4.78;65.03;98784.56;5115682;28;20486;-66
2023/03/06 08:50:42;;;;;;;1.17;1.10;;;;;;;4.92;64.75;98800.69;5105173;28;20133;-65
2023/03/06 08:53:11;;;;;;;1.92;1.35;;;;;;;4.96;64.28;98788.09;5114785;28;20040;-65
2023/03/06 08:55:40;;;;;;;0.98;0.98;;;;;;;4.91;63.61;98794.78;5116512;28;20096;-65
2023/03/06 08:58:08;;;;;;;1.63;1.52;;;;;;;4.96;63.69;98794.81;5116548;28;20465;-65
2023/03/06 09:00:38;;;;;;;5.03;1.08;;;;;;;5.08;63.36;98798.28;5116509;28;20511;-65
2023/03/06 09:03:06;;;;;;;0.40;0.40;;;;;;;5.19;63.36;98795.81;5116469;28;20036;-65
2023/03/06 09:05:35;;;;;;;0.57;0.57;;;;;;;5.29;62.88;98793.34;5116436;28;20044;-65
2023/03/06 09:08:05;;;;;;;3.55;0.70;;;;;;;5.29;62.33;98787.44;5116587;28;20597;-65
2023/03/06 09:10:34;;;;;;;0.77;0.77;;;;;;;5.22;62.19;98789.09;5116457;28;20047;-65
2023/03/06 09:13:03;;;;;;;8.10;1.25;;;;;;;5.14;62.20;98788.19;5111444;28;20047;-65
2023/03/06 09:15:32;;;;;;;0.30;0.30;;;;;;;5.26;61.86;98783.22;5104762;28;20130;-65
2023/03/06 09:18:01;;;;;;;3.05;1.58;;;;;;;5.34;61.22;98786.66;5095060;28;20040;-65
2023/03/06 09:20:29;;;;;;;0.52;0.52;;;;;;;5.39;60.83;98790.06;5095790;28;20067;-65
2023/03/06 09:22:58;;;;;;;0.27;0.27;;;;;;;5.29;60.23;98788.31;5095673;28;20040;-65
2023/03/06 09:25:28;;;;;;;1.88;1.00;;;;;;;5.39;60.56;98785.00;5112600;28;20489;-65
2023/03/06 09:27:57;;;;;;;0.25;0.25;;;;;;;5.46;60.21;98792.59;5100928;28;20039;-65
2023/03/06 09:30:40;;;;;;;0.38;0.38;;;;;;;5.51;60.05;98785.88;5095554;28;20101;-65
2023/03/06 09:33:09;;;;;;;0.88;0.47;;;;;;;5.49;59.34;98790.09;5114361;28;20036;-65
2023/03/06 09:35:43;;;;;;;0.60;0.60;;;;;;;5.46;59.02;98785.84;5115941;28;20040;-65
2023/03/06 09:38:12;;;;;;;0.93;0.93;;;;;;;5.54;58.75;98773.25;5116170;28;20439;-65
2023/03/06 09:41:00;;;;;;;14.38;2.08;;;;;;;5.62;58.19;98776.63;5115720;28;20040;-65
2023/03/06 09:43:34;;;;;;;0.82;0.82;;;;;;;5.62;58.15;98771.56;5115844;28;20100;-65
2023/03/06 09:46:13;;;;;;;0.30;0.30;;;;;;;5.60;57.89;98773.25;5114189;28;20070;-65
2023/03/06 09:48:54;;;;;;;0.52;0.52;;;;;;;5.66;57.97;98778.38;5103562;28;20044;-65
2023/03/06 09:51:31;;;;;;;0.40;0.40;;;;;;;5.66;58.02;98773.31;5095031;28;20048;-65
2023/03/06 09:54:12;;;;;;;0.20;0.20;;;;;;;5.70;57.76;98775.84;5095425;28;20052;-65
2023/03/06 09:56:47;;;;;;;0.52;0.52;;;;;;;5.58;57.40;98764.81;5095219;28;20105;-65
2023/03/06 09:59:20;;;;;;;1.33;1.23;;;;;;;5.60;58.00;98764.00;5095410;28;20093;-65
2023/03/06 10:02:00;;;;;;;0.50;0.50;;;;;;;5.71;57.87;98762.34;5095366;28;20044;-65
2023/03/06 10:04:36;;;;;;;4.47;1.95;;;;;;;5.82;57.94;98769.97;5094902;28;20163;-65
2023/03/06 10:07:13;;;;;;;0.50;0.50;;;;;;;5.84;58.40;98769.19;5095025;28;20044;-65
2023/03/06 10:09:48;;;;;;;0.65;0.65;;;;;;;5.89;58.50;98756.53;5095238;28;20056;-65
2023/03/06 10:12:27;;;;;;;1.17;1.08;;;;;;;5.85;57.57;98763.28;5094049;28;20048;-65
2023/03/06 10:15:02;;;;;;;2.53;2.33;;;;;;;5.78;57.71;98763.22;5093138;28;20443;-64
2023/03/06 10:17:36;;;;;;;0.60;0.60;;;;;;;5.79;57.48;98770.81;5094580;28;20160;-65
2023/03/06 10:20:17;;;;;;;1.10;1.00;;;;;;;5.73;57.63;98769.94;5094917;28;20044;-65
2023/03/06 10:23:08;;;;;;;0.55;0.50;;;;;;;5.69;58.51;98758.97;5094571;28;20047;-65
2023/03/06 10:25:48;;;;;;;0.60;0.60;;;;;;;5.71;58.27;98756.44;5094412;28;20044;-65
2023/03/06 10:28:25;;;;;;;0.32;0.32;;;;;;;5.76;58.96;98754.78;5093791;28;20040;-65
2023/03/06 10:31:02;;;;;;;1.40;1.30;;;;;;;5.68;58.81;98751.38;5094732;28;20048;-65
2023/03/06 10:33:50;;;;;;;0.90;0.45;;;;;;;5.61;59.20;98753.03;5094427;28;20167;-65
2023/03/06 10:36:21;;;;;;;0.73;0.73;;;;;;;5.60;59.85;98743.75;5094333;28;20048;-65
2023/03/06 10:38:50;;;;;;;0.32;0.32;;;;;;;5.66;59.62;98748.84;5094595;28;20428;-65
2023/03/06 10:41:26;;;;;;;1.47;1.07;;;;;;;5.72;59.90;98745.47;5094595;28;20058;-65
2023/03/06 10:44:16;;;;;;;1.17;1.08;;;;;;;5.76;59.22;98749.72;5094193;28;20123;-66
2023/03/06 10:46:49;;;;;;;0.77;0.77;;;;;;;5.82;59.07;98747.19;5094591;28;20067;-65
2023/03/06 10:49:32;;;;;;;0.40;0.40;;;;;;;5.74;59.32;98742.09;5094065;28;20083;-66
2023/03/06 10:52:04;;;;;;;0.35;0.35;;;;;;;5.79;59.96;98744.66;5094464;28;20048;-65
2023/03/06 10:54:34;;;;;;;2.25;0.60;;;;;;;5.80;59.21;98736.22;5094250;28;20048;-65
2023/03/06 10:57:25;;;;;;;3.05;2.55;;;;;;;5.81;58.86;98742.97;5093981;28;20541;-65
2023/03/06 10:59:56;;;;;;;0.68;0.68;;;;;;;5.73;59.19;98725.25;5094010;28;20131;-65
2023/03/06 11:02:29;;;;;;;0.30;0.30;;;;;;;5.61;58.58;98735.31;5094626;28;20040;-64
2023/03/06 11:05:02;;;;;;;1.55;1.00;;;;;;;5.55;58.92;98729.38;5099299;28;20485;-65
2023/03/06 11:07:31;;;;;;;2.58;1.75;;;;;;;5.58;59.16;98729.41;5114197;28;20063;-65
2023/03/06 11:10:07;;;;;;;0.85;0.70;;;;;;;5.57;59.93;98718.41;5114509;28;20074;-66
2023/03/06 11:12:38;;;;;;;0.68;0.68;;;;;;;5.62;60.54;98713.38;5110916;28;20056;-65
2023/03/06 11:15:17;;;;;;;0.68;0.50;;;;;;;5.63;60.48;98712.53;5098882;28;20071;-64
2023/03/06 11:17:54;;;;;;;0.40;0.40;;;;;;;5.65;60.28;98706.66;5093740;28;20036;-65
2023/03/06 11:20:27;;;;;;;1.10;0.60;;;;;;;5.57;60.33;98708.28;5093638;28;20123;-64
2023/03/06 11:23:08;;;;;;;1.48;1.25;;;;;;;5.48;61.36;98715.88;5093553;28;20058;-64
2023/03/06 11:25:41;;;;;;;0.35;0.35;;;;;;;5.35;62.04;98707.38;5093540;28;20513;-64
2023/03/06 11:28:20;;;;;;;0.50;0.50;;;;;;;5.29;61.98;98711.56;5093553;28;20048;-64
2023/03/06 11:30:52;;;;;;;0.57;0.57;;;;;;;5.28;61.86;98705.66;5095898;28;20044;-64
2023/03/06 11:33:29;;;;;;;0.50;0.50;;;;;;;5.21;62.15;98703.09;5102659;28;20067;-64
2023/03/06 11:36:05;;;;;;;0.40;0.40;;;;;;;5.21;62.26;98696.34;5093903;28;20075;-64
2023/03/06 11:38:41;;;;;;;0.60;0.60;;;;;;;5.19;62.66;98695.50;5093503;28;20123;-64
2023/03/06 11:41:19;;;;;;;1.33;1.23;;;;;;;5.22;62.42;98693.00;5097259;28;20048;-64
2023/03/06 11:43:55;;;;;;;0.30;0.30;;;;;;;5.18;62.33;98693.81;5100494;28;20068;-65
2023/03/06 11:46:28;;;;;;;0.95;0.95;;;;;;;5.20;62.83;98687.09;5118548;28;20046;-64
2023/03/06 11:49:06;;;;;;;1.48;1.15;;;;;;;5.20;62.41;98676.97;5117964;28;20047;-65
2023/03/06 11:51:42;;;;;;;0.85;0.85;;;;;;;5.26;62.11;98677.00;5118277;28;20443;-64
2023/03/06 11:54:13;;;;;;;1.17;1.15;;;;;;;5.11;62.61;98661.75;5118092;28;20485;-64
2023/03/06 11:56:53;;;;;;;1.00;0.90;;;;;;;5.21;62.84;98663.47;5118198;28;20486;-64
2023/03/06 11:59:40;;;;;;;0.73;0.63;;;;;;;5.26;62.68;98671.06;5118124;28;20093;-64
2023/03/06 12:02:23;;;;;;;0.60;0.60;;;;;;;5.30;62.79;98663.50;5117800;28;20071;-64
2023/03/06 12:05:12;;;;;;;0.52;0.52;;;;;;;5.30;62.17;98666.03;5117512;28;20048;-64